EGHI Airport Information

Runway Information
Runway 02 Length 5653 ft width 121 ft
Elevation 31 ft Threshold 240 ft Heading 19
Runway 20 Length 5653 ft Width 121 ft
Elevation 44 ft Threshold 145 ft Heading 199
Airport Frequencies
Type APP Name APP Frequency 128.85 MHZ
Type ATIS Name ATIS Frequency 113.35 MHZ
Type GND Name GND Frequency 121.775 MHZ
Type OPS Name OPS Frequency 130.65 MHZ
Type TWR Name TWR Frequency 118.2 MHZ
Airport Navaids
Type NDB Name Southampton Frequency 392 KHZ
Type VOR-DME Name Southampton Frequency 113350 KHZ
Airport Weather Information & NOTAM
ADDS - METARS form results

(1246 UTC 25 October 2021)
Data provider http://aviationweather.gov/metar/data/
 
METAR text: EGHI 251220Z 23006KT 190V280 9999 FEW010 SCT015 15/12 Q1015
Conditions at: EGHI (SOUTHAMPTON WX C, GB) observed 1220 UTC 25 October 2021
Temperature: 15.0°C (59°F)
Dewpoint: 12.0°C (54°F) [RH = 82%]
Pressure (altimeter): 29.97 inches Hg (1015.0 mb)
Winds: from the SW (230 degrees) at 7 MPH (6 knots; 3.1 m/s)
Visibility: 6 or more miles (10+ km)
Ceiling: at least 12,000 feet AGL
Clouds: few clouds at 1000 feet AGL
scattered clouds at 1500 feet AGL
Weather: no significant weather observed at this time

METAR text: EGHI 251150Z 23005KT 200V260 9999 FEW014 14/13 Q1015
Conditions at: EGHI (SOUTHAMPTON WX C, GB) observed 1150 UTC 25 October 2021
Temperature: 14.0°C (57°F)
Dewpoint: 13.0°C (55°F) [RH = 94%]
Pressure (altimeter): 29.97 inches Hg (1015.0 mb)
Winds: from the SW (230 degrees) at 6 MPH (5 knots; 2.6 m/s)
Visibility: 6 or more miles (10+ km)
Ceiling: at least 12,000 feet AGL
Clouds: few clouds at 1400 feet AGL
Weather: no significant weather observed at this time

Forecast for: EGHI (SOUTHAMPTON WX C, GB)
Text: TAF EGHI 251104Z 2512/2521 23008KT 9999 FEW016 SCT020
Forecast period: 1200 to 2100 UTC 25 October 2021
Forecast type: FROM: standard forecast or significant change
Winds: from the SW (230 degrees) at 9 MPH (8 knots; 4.1 m/s)
Visibility: 6 or more miles (10+ km)
Ceiling: at least 12,000 feet AGL
Clouds: few clouds at 1600 feet AGL
scattered clouds at 2000 feet AGL
Weather: no significant weather forecast for this period
Text: TEMPO 2512/2519 4000 SHRA
Forecast period: 1200 to 1900 UTC 25 October 2021
Forecast type: TEMPORARY: The following changes expected for less than half the time period
Visibility: 2.49 miles (4.01 km)
Ceiling: unknown
Clouds: missing
Weather: SHRA  (rain showers)
Text: PROB30
Forecast period: 1200 to 1900 UTC 25 October 2021
Forecast type: TEMPORARY: The following changes expected for less than half the time period
Visibility: missing
Ceiling: 1400 feet AGL
Clouds: broken clouds at 1400 feet AGL
broken clouds at 2000 feet AGL
Weather: +SHRA  (heavy rain showers)